首页
METAR-TAF:

METAR-TAF

机场 :

阿什维尔, 北卡罗来纳州, 美国

纬度: 35-25-55N, 经度: 082-32-15W, 海拔: 660米

当前天气观测

该预报发布于47分钟前的17:54 UTC
风速9节,风向南转南东
温度 28°C
湿度 48%
气压 1016 hPa
能見度: 16.1公里
少量云层高于5000英尺

METAR: KAVL 041754Z 16009KT 10SM FEW050 28/16 A3000 RMK AO2 LTG DSNT SW AND W SLP129 T02830161 10300 20200 58013

时间: 14:41 (18:41 UTC)

预报

该预报发布于1小时和5分钟前的17:36 UTC
预报有效从04日的 18点(UTC)到 05日的 18点(UTC)
风速5节,风向
能見度: 10公里
多云层高于4000英尺, 积雨云.
附近有雷暴
从 05日的 0300点(UTC)
风速3节,风向
能見度: 10公里
散云层高于4000英尺
多云层高于8000英尺
从 05日的 0500点(UTC)
风速3节,风向多变
能見度: 10公里
多云层高于1500英尺
从 05日的 0800点(UTC)
风速2节,风向多变
能見度: 8.0公里
多云层高于800英尺
轻雾
从 05日的 1400点(UTC)
风速2节,风向多变
能見度: 10公里
散云层高于3500英尺
几率 30%
从 05日的 14点(UTC)到 05日的 18点(UTC)
能見度: 6.4公里
多云层高于2500英尺, 积雨云.
雷暴, 雨, 轻雾

TAF: KAVL 041736Z 0418/0518 17005KT P6SM VCTS BKN040CB FM050300 18003KT P6SM SCT040 BKN080 FM050500 VRB03KT P6SM BKN015 FM050800 VRB02KT 5SM BR BKN008 FM051400 VRB02KT P6SM SCT035 PROB30 0514/0518 4SM TSRA BR BKN025CB

超过4000个机场的气象观测和天气预报(METAR&TAF报告)。

可查询的气象台以黄色和红色小点在地图上表示。

将鼠标移到小点上方,可查看气象台名称。

然后点击查看天气观测和预报。

如需切换地图:点击带黑十字的绿色按钮放大地图;点击带横线的绿色按钮缩小地图;或者点击绿色箭头查看邻近地区的地图。


METAR-TAF: